Dodge City Regional Airport Dodge City US
ICAO: KDDC
IATA: DDC
Category: Medium
Scheduled Services: Yes

Elevation: 2594 ft
TransAlt. 18000 ft.

Airport Communications:
ASOS:118.525
KANSAS CITY CNTR:125.2
WICHITA RDO:122.35
CTAF/UNICOM:122.7

KDDC Zoom In..

If you have problems with the map follow the link
https://www.worldairports.se/pages/airport.php?
ICAO=KDDC

Runways:

(A) RW 02 length 4649 ft width 100 ft
---- / hdg 24

(B) RW 14 length 6899 ft width 100 ft
ILS 111.70 / hdg 146

(C) RW 20 length 4649 ft width 100 ft
---- / hdg 204

(D) RW 32 length 6899 ft width 100 ft
---- / hdg 326

Location; KDDC
Day. 18 / Time. 21.52 Zulu
* Altimeter: 29.73
* Temperature: 01° c. 33.8°f.
* Wind from: 360° Speed 20 kn with Gusts up to 31 kn.
Dewpoint: -01° c.
Visibility: 2 m.
Clouds: Overcast 400 ft.
Conditions: Mist.

KDDC 182152Z AUTO 36020G31KT 2 1/2SM BR OVC004 01/M01 A2973 RMK AO2 PK WND 35031/2139 RAE02UPB02E46 SLP077 P0000 T00061006


Wind From 360°
Speed 20 kn.

 
 
jpsmedia.com for Web Design worldairports.se 2019   terms of use